This is the latest recevied weather packets stored in our database for station/object WX2NJ. If no packets are shown the sender has not sent any weather packets the latest 10 day(s).
| Time | Temp. | Humidity | Pressure | Rain* | Wind** | Luminosity | Snow |
|---|---|---|---|---|---|---|---|
| 1777659209 | 15° C | 56% | 1015.9 hPa | 0 mm | - | 716 W/m² | - |
| 1777658906 | 16.67° C | 54% | 1015.7 hPa | 0 mm | - | 721 W/m² | - |
| 1777655872 | 18.33° C | 43% | 1016 hPa | 0 mm | - | 743 W/m² | - |
| 1777655569 | 17.78° C | 42% | 1015.9 hPa | 0 mm | - | 608 W/m² | - |
| 1777654963 | 16.11° C | 44% | 1016 hPa | 0 mm | - | 505 W/m² | - |
| 1777654358 | 16.67° C | 42% | 1016.4 hPa | 0 mm | - | 640 W/m² | - |
| 1777653448 | 17.22° C | 43% | 1016.4 hPa | 0 mm | - | 331 W/m² | - |
| 1777653146 | 17.78° C | 39% | 1016.6 hPa | 0 mm | - | 581 W/m² | - |
| 1777652842 | 17.22° C | 44% | 1016.6 hPa | 0 mm | - | 654 W/m² | - |
| 1777652538 | 17.22° C | 44% | 1016.7 hPa | 0 mm | - | 478 W/m² | - |
| 1777652236 | 16.67° C | 40% | 1016.9 hPa | 0 mm | - | 581 W/m² | - |
| 1777651933 | 16.67° C | 41% | 1016.7 hPa | 0 mm | - | 661 W/m² | - |
| 1777651629 | 17.22° C | 42% | 1017 hPa | 0 mm | - | 588 W/m² | - |
| 1777651326 | 16.67° C | 44% | 1017 hPa | 0 mm | - | 577 W/m² | - |
| 1777651023 | 16.11° C | 44% | 1017.2 hPa | 0 mm | - | 662 W/m² | - |
| 1777650720 | 16.67° C | 45% | 1017.3 hPa | 0 mm | - | 462 W/m² | - |
| 1777650417 | 15.56° C | 48% | 1017.5 hPa | 0 mm | - | 301 W/m² | - |
| 1777650114 | 16.11° C | 46% | 1017.2 hPa | 0 mm | - | 314 W/m² | - |
| 1777649812 | 15.56° C | 47% | 1017.2 hPa | 0 mm | - | 254 W/m² | - |
| 1777649509 | 15° C | 46% | 1017.3 hPa | 0 mm | - | 242 W/m² | - |
| 1777649205 | 15.56° C | 47% | 1017.4 hPa | 0 mm | - | 221 W/m² | - |
| 1777648902 | 16.11° C | 47% | 1017.3 hPa | 0 mm | - | 199 W/m² | - |
| 1777648599 | 15.56° C | 48% | 1017.4 hPa | 0 mm | - | 224 W/m² | - |
| 1777648296 | 16.67° C | 47% | 1017.5 hPa | 0 mm | - | 196 W/m² | - |
| 1777647992 | 16.11° C | 49% | 1017.4 hPa | 0 mm | - | 193 W/m² | - |
* Rain latest hour (hover to see other rain measurements)
** Current wind speed in m/s (hover to see current wind gust speed)